createdAt,value
2017-04-29T00:00:30.625Z,54.53
2017-04-29T00:01:11.236Z,55.39
2017-04-29T00:01:51.869Z,54.91
2017-04-29T00:02:32.496Z,55.1
2017-04-29T00:03:13.182Z,54.82
2017-04-29T00:03:53.730Z,54.25
2017-04-29T00:04:34.317Z,54.35
2017-04-29T00:05:14.889Z,54.35
2017-04-29T00:05:55.458Z,54.35
2017-04-29T00:06:36.069Z,54.15
2017-04-29T00:07:16.686Z,54.25
2017-04-29T00:07:57.266Z,53.96
2017-04-29T00:08:37.918Z,53.87
2017-04-29T00:09:18.477Z,53.87
2017-04-29T00:09:59.143Z,53.87
2017-04-29T00:10:39.752Z,53.77
2017-04-29T00:11:20.320Z,53.61
2017-04-29T00:12:00.913Z,53.87
2017-04-29T00:12:41.539Z,53.8
2017-04-29T00:13:22.115Z,53.52
2017-04-29T00:14:02.702Z,53.3
2017-04-29T00:14:43.303Z,53.49
2017-04-29T00:15:23.875Z,53.58
2017-04-29T00:16:04.471Z,53.49
2017-04-29T00:16:45.172Z,53.49
2017-04-29T00:17:25.872Z,53.49
2017-04-29T00:18:06.423Z,53.3
2017-04-29T00:18:46.996Z,53.39
2017-04-29T00:19:27.580Z,53.67
2017-04-29T00:20:08.197Z,53.87
2017-04-29T00:20:48.778Z,53.58
2017-04-29T00:21:29.354Z,53.04
2017-04-29T00:22:09.938Z,53.58
2017-04-29T00:22:50.561Z,53.77
2017-04-29T00:23:31.152Z,53.58
2017-04-29T00:24:11.737Z,53.89
2017-04-29T00:24:52.325Z,53.77
2017-04-29T00:25:32.870Z,53.96
2017-04-29T00:26:13.440Z,54.15
2017-04-29T00:26:54.057Z,53.67
2017-04-29T00:27:34.631Z,54.47
2017-04-29T00:28:15.286Z,53.87
2017-04-29T00:28:55.872Z,54.08
2017-04-29T00:29:36.451Z,53.89
2017-04-29T00:30:17.033Z,53.96
2017-04-29T00:30:57.597Z,53.87
2017-04-29T00:31:38.176Z,53.8
2017-04-29T00:32:18.765Z,53.61
2017-04-29T00:32:59.343Z,53.77
2017-04-29T00:33:39.931Z,53.89
2017-04-29T00:34:20.510Z,53.58
2017-04-29T00:35:01.086Z,53.7
2017-04-29T00:35:41.644Z,54.08
2017-04-29T00:36:22.224Z,53.77
2017-04-29T00:37:02.795Z,53.96
2017-04-29T00:37:43.394Z,53.8
2017-04-29T00:38:23.951Z,53.96
2017-04-29T00:39:04.535Z,53.77
2017-04-29T00:39:45.124Z,53.7
2017-04-29T00:40:25.704Z,53.96
2017-04-29T00:41:06.300Z,53.96
2017-04-29T00:41:46.890Z,53.87
2017-04-29T00:42:27.467Z,53.89
2017-04-29T00:43:08.049Z,54.15
2017-04-29T00:43:48.623Z,54.15
2017-04-29T00:44:29.213Z,54.53
2017-04-29T00:45:09.784Z,54.37
2017-04-29T00:45:50.359Z,54.35
2017-04-29T00:46:30.954Z,54.37
2017-04-29T00:47:11.544Z,54.66
2017-04-29T00:47:52.120Z,54.53
2017-04-29T00:48:32.709Z,54.47
2017-04-29T00:49:13.292Z,54.63
2017-04-29T00:49:53.869Z,54.63
2017-04-29T00:50:34.447Z,54.66
2017-04-29T00:51:15.026Z,54.63
2017-04-29T00:51:55.627Z,54.82
2017-04-29T00:52:36.217Z,55.1
2017-04-29T00:53:16.796Z,55.13
2017-04-29T00:53:57.500Z,54.91
2017-04-29T00:54:38.085Z,54.72
2017-04-29T00:55:18.677Z,55.39
2017-04-29T00:55:59.261Z,55.29
2017-04-29T00:56:39.847Z,55.77
2017-04-29T00:57:20.445Z,55.58
2017-04-29T00:58:01.065Z,55.51
2017-04-29T00:58:41.682Z,55.96
2017-04-29T00:59:28.791Z,55.61
2017-04-29T01:00:09.383Z,55.7
2017-04-29T01:00:49.992Z,55.7
2017-04-29T01:01:30.649Z,55.32
2017-04-29T01:02:11.238Z,55.42
2017-04-29T01:02:51.839Z,55.42
2017-04-29T01:03:32.480Z,55.51
2017-04-29T01:04:13.087Z,55.42
2017-04-29T01:04:53.690Z,55.22
2017-04-29T01:05:34.310Z,55.32
2017-04-29T01:06:14.932Z,54.75
2017-04-29T01:06:55.541Z,54.85
2017-04-29T01:07:36.137Z,55.04
2017-04-29T01:08:16.748Z,55.42
2017-04-29T01:08:57.351Z,55.42
2017-04-29T01:09:37.982Z,55.51
2017-04-29T01:10:18.581Z,55.8
2017-04-29T01:10:59.176Z,55.7
2017-04-29T01:11:39.815Z,55.7
2017-04-29T01:12:20.405Z,55.8
2017-04-29T01:13:01.048Z,55.7
2017-04-29T01:13:41.648Z,55.61
2017-04-29T01:14:22.268Z,55.29
2017-04-29T01:15:02.878Z,55.9
2017-04-29T01:15:43.467Z,56.37
2017-04-29T01:16:24.046Z,56.56
2017-04-29T01:17:04.634Z,57.04
2017-04-29T01:17:45.203Z,56.94
2017-04-29T01:18:25.809Z,57.04
2017-04-29T01:19:06.397Z,57.48
2017-04-29T01:19:47.000Z,57.8
2017-04-29T01:20:27.591Z,57.8
2017-04-29T01:21:08.175Z,57.99
2017-04-29T01:21:48.758Z,57.89
2017-04-29T01:22:29.335Z,58.56
2017-04-29T01:23:09.911Z,58.62
2017-04-29T01:23:50.551Z,58.53
2017-04-29T01:24:31.189Z,59.29
2017-04-29T01:25:11.767Z,59.67
2017-04-29T01:25:52.360Z,59.39
2017-04-29T01:26:32.967Z,59.39
2017-04-29T01:27:13.546Z,60.05
2017-04-29T01:27:54.139Z,59.86
2017-04-29T01:28:34.724Z,60.05
2017-04-29T01:29:15.307Z,60.15
2017-04-29T01:29:55.887Z,59.96
2017-04-29T01:30:36.467Z,60.34
2017-04-29T01:31:17.053Z,60.15
2017-04-29T01:31:57.628Z,60.63
2017-04-29T01:32:38.228Z,61
2017-04-29T01:33:18.797Z,60.91
2017-04-29T01:33:59.386Z,61
2017-04-29T01:34:39.994Z,61.29
2017-04-29T01:35:20.593Z,61.67
2017-04-29T01:36:01.167Z,62.15
2017-04-29T01:36:41.781Z,61.58
2017-04-29T01:37:22.395Z,62.34
2017-04-29T01:38:02.991Z,62.15
2017-04-29T01:38:43.580Z,63.01
2017-04-29T01:39:24.139Z,63.01
2017-04-29T01:40:04.721Z,62.81
2017-04-29T01:40:45.311Z,63.96
2017-04-29T01:41:25.912Z,64.05
2017-04-29T01:42:06.524Z,64.05
2017-04-29T01:42:47.112Z,64.24
2017-04-29T01:43:27.707Z,64.34
2017-04-29T01:44:08.278Z,64.72
2017-04-29T01:44:48.847Z,64.81
2017-04-29T01:45:29.474Z,65.48
2017-04-29T01:46:10.049Z,65.58
2017-04-29T01:46:50.631Z,66.05
2017-04-29T01:47:31.220Z,65.95
2017-04-29T01:48:11.804Z,65.77
2017-04-29T01:48:52.397Z,66.33
2017-04-29T01:49:32.988Z,66.53
2017-04-29T01:50:13.561Z,66.53
2017-04-29T01:50:54.147Z,66.91
2017-04-29T01:51:34.723Z,66.72
2017-04-29T01:52:15.357Z,66.43
2017-04-29T01:52:55.937Z,67.1
2017-04-29T01:53:36.520Z,66.91
2017-04-29T01:54:17.101Z,67.1
2017-04-29T01:54:57.679Z,67.38
2017-04-29T01:55:38.257Z,67.38
2017-04-29T01:56:18.830Z,67.1
2017-04-29T01:56:59.407Z,67.38
2017-04-29T01:57:39.987Z,67.29
2017-04-29T01:58:20.592Z,67.67
2017-04-29T01:59:01.163Z,67.67
2017-04-29T01:59:41.766Z,67.95
2017-04-29T02:00:22.377Z,67.76
2017-04-29T02:01:02.961Z,67.86
2017-04-29T02:01:43.531Z,67.86
2017-04-29T02:02:24.100Z,67.76
2017-04-29T02:03:04.676Z,68.52
2017-04-29T02:03:45.261Z,68.15
2017-04-29T02:04:25.826Z,68.15
2017-04-29T02:05:06.438Z,68.15
2017-04-29T02:05:47.024Z,68.15
2017-04-29T02:06:27.644Z,68.15
2017-04-29T02:07:08.254Z,68.24
2017-04-29T02:07:48.844Z,68.62
2017-04-29T02:08:29.402Z,68.9
2017-04-29T02:09:09.974Z,68.62
2017-04-29T02:09:50.561Z,68.43
2017-04-29T02:10:31.150Z,68.71
2017-04-29T02:11:11.718Z,68.71
2017-04-29T02:11:52.309Z,68.9
2017-04-29T02:12:32.893Z,68.9
2017-04-29T02:13:13.485Z,68.81
2017-04-29T02:13:54.063Z,69.38
2017-04-29T02:14:34.663Z,69.76
2017-04-29T02:15:15.247Z,70.24
2017-04-29T02:15:55.823Z,70.14
2017-04-29T02:16:36.440Z,69.76
2017-04-29T02:17:17.023Z,70.43
2017-04-29T02:17:57.601Z,70.62
2017-04-29T02:18:38.190Z,70.14
2017-04-29T02:19:18.767Z,70.62
2017-04-29T02:19:59.425Z,70.62
2017-04-29T02:20:39.993Z,71
2017-04-29T02:21:20.573Z,70.72
2017-04-29T02:22:01.147Z,70.81
2017-04-29T02:22:41.724Z,70.81
2017-04-29T02:23:22.316Z,71.09
2017-04-29T02:24:02.900Z,70.9
2017-04-29T02:24:43.474Z,71.19
2017-04-29T02:25:24.063Z,71.19
2017-04-29T02:26:04.656Z,71.19
2017-04-29T02:26:45.251Z,71
2017-04-29T02:27:25.883Z,71.09
2017-04-29T02:28:06.520Z,71.47
2017-04-29T02:28:47.103Z,71.09
2017-04-29T02:29:27.680Z,71.28
2017-04-29T02:30:08.288Z,71.47
2017-04-29T02:30:48.864Z,71.47
2017-04-29T02:31:29.508Z,71.28
2017-04-29T02:32:10.065Z,71.38
2017-04-29T02:32:50.664Z,71.57
2017-04-29T02:33:31.655Z,71.44
2017-04-29T02:34:12.451Z,71.57
2017-04-29T02:34:53.417Z,71.57
2017-04-29T02:35:34.080Z,71.38
2017-04-29T02:36:14.658Z,71.38
2017-04-29T02:36:55.265Z,71.76
2017-04-29T02:37:35.871Z,71.44
2017-04-29T02:38:16.442Z,71.72
2017-04-29T02:38:57.014Z,71.72
2017-04-29T02:39:37.584Z,71.57
2017-04-29T02:40:18.179Z,71.38
2017-04-29T02:40:58.764Z,71.44
2017-04-29T02:41:39.346Z,71.44
2017-04-29T02:42:19.930Z,71.53
2017-04-29T02:43:00.513Z,71.57
2017-04-29T02:43:41.101Z,71.19
2017-04-29T02:44:21.686Z,71.28
2017-04-29T02:45:02.278Z,71.28
2017-04-29T02:45:42.840Z,71.34
2017-04-29T02:46:23.438Z,71.34
2017-04-29T02:47:04.010Z,71.53
2017-04-29T02:47:44.587Z,71.34
2017-04-29T02:48:25.200Z,71.53
2017-04-29T02:49:05.783Z,71.63
2017-04-29T02:49:46.365Z,71.63
2017-04-29T02:50:26.950Z,71.53
2017-04-29T02:51:07.524Z,71.72
2017-04-29T02:51:48.135Z,71.63
2017-04-29T02:52:28.712Z,72.01
2017-04-29T02:53:09.293Z,71.82
2017-04-29T02:53:49.915Z,71.72
2017-04-29T02:54:30.511Z,71.72
2017-04-29T02:55:11.123Z,71.44
2017-04-29T02:55:51.731Z,71.44
2017-04-29T02:56:32.371Z,71.53
2017-04-29T02:57:12.950Z,71.34
2017-04-29T02:57:53.539Z,71.53
2017-04-29T02:58:34.129Z,71.34
2017-04-29T02:59:14.743Z,71.53
2017-04-29T02:59:55.398Z,71.53
2017-04-29T03:00:35.994Z,71.44
2017-04-29T03:01:16.625Z,71.63
2017-04-29T03:01:57.222Z,71.53
2017-04-29T03:02:37.811Z,71.63
2017-04-29T03:03:18.455Z,71.53
2017-04-29T03:03:59.041Z,71.72
2017-04-29T03:04:39.642Z,71.34
2017-04-29T03:05:20.222Z,71.34
2017-04-29T03:06:00.834Z,71.25
2017-04-29T03:06:41.441Z,71.34
2017-04-29T03:07:22.053Z,71.34
2017-04-29T03:08:02.634Z,71.53
2017-04-29T03:08:43.252Z,71.34
2017-04-29T03:09:23.838Z,71.82
2017-04-29T03:10:04.445Z,71.53
2017-04-29T03:10:45.117Z,71.44
2017-04-29T03:11:25.649Z,71.53
2017-04-29T03:12:06.242Z,71.63
2017-04-29T03:12:46.882Z,71.53
2017-04-29T03:13:27.499Z,71.53
2017-04-29T03:14:08.101Z,71.53
2017-04-29T03:14:48.722Z,71.63
2017-04-29T03:15:29.335Z,71.63
2017-04-29T03:16:09.932Z,71.82
2017-04-29T03:16:50.503Z,71.63
2017-04-29T03:17:31.131Z,71.82
2017-04-29T03:18:11.755Z,71.72
2017-04-29T03:18:52.387Z,72.3
2017-04-29T03:19:33.025Z,72.01
2017-04-29T03:20:13.633Z,72.01
2017-04-29T03:20:54.266Z,72.11
2017-04-29T03:21:34.834Z,71.91
2017-04-29T03:22:15.435Z,72.49
2017-04-29T03:22:56.055Z,72.3
2017-04-29T03:23:36.682Z,72.11
2017-04-29T03:24:17.319Z,72.2
2017-04-29T03:24:57.945Z,72.58
2017-04-29T03:25:38.563Z,72.49
2017-04-29T03:26:19.166Z,72.49
2017-04-29T03:26:59.801Z,72.49
2017-04-29T03:27:40.408Z,72.67
2017-04-29T03:28:21.037Z,72.3
2017-04-29T03:29:01.593Z,72.49
2017-04-29T03:29:42.171Z,72.39
2017-04-29T03:30:22.755Z,72.3
2017-04-29T03:31:03.345Z,72.3
2017-04-29T03:31:43.938Z,72.2
2017-04-29T03:32:24.556Z,72.67
2017-04-29T03:33:05.132Z,72.49
2017-04-29T03:33:45.738Z,72.77
2017-04-29T03:34:26.326Z,72.67
2017-04-29T03:35:06.921Z,72.67
2017-04-29T03:35:47.517Z,72.39
2017-04-29T03:36:28.135Z,72.3
2017-04-29T03:37:08.745Z,72.39
2017-04-29T03:37:49.403Z,72.77
2017-04-29T03:38:30.036Z,72.77
2017-04-29T03:39:10.648Z,72.58
2017-04-29T03:39:51.271Z,72.77
2017-04-29T03:40:31.912Z,72.77
2017-04-29T03:41:12.507Z,72.77
2017-04-29T03:41:53.122Z,72.58
2017-04-29T03:42:33.732Z,72.77
2017-04-29T03:43:14.362Z,72.49
2017-04-29T03:43:54.961Z,72.86
2017-04-29T03:44:35.580Z,72.67
2017-04-29T03:45:16.219Z,72.77
2017-04-29T03:45:56.833Z,72.39
2017-04-29T03:46:37.455Z,72.3
2017-04-29T03:47:18.047Z,72.67
2017-04-29T03:47:58.660Z,72.2
2017-04-29T03:48:39.286Z,72.39
2017-04-29T03:49:19.879Z,72.39
2017-04-29T03:50:00.462Z,72.49
2017-04-29T03:50:41.107Z,72.3
2017-04-29T03:51:21.717Z,72.39
2017-04-29T03:52:02.360Z,72.49
2017-04-29T03:52:42.969Z,72.2
2017-04-29T03:53:23.556Z,72.49
2017-04-29T03:54:04.176Z,72.3
2017-04-29T03:54:44.779Z,71.82
2017-04-29T03:55:25.389Z,72.2
2017-04-29T03:56:06.063Z,71.82
2017-04-29T03:56:46.720Z,71.82
2017-04-29T03:57:27.352Z,72.3
2017-04-29T03:58:07.968Z,72.3
2017-04-29T03:58:48.602Z,72.11
2017-04-29T03:59:39.999Z,72.58
2017-04-29T04:00:20.614Z,72.3
2017-04-29T04:01:01.237Z,72.3
2017-04-29T04:01:41.823Z,72.39
2017-04-29T04:02:22.449Z,72.49
2017-04-29T04:03:03.059Z,72.49
2017-04-29T04:03:43.656Z,72.3
2017-04-29T04:04:24.271Z,72.49
2017-04-29T04:05:04.896Z,72.49
2017-04-29T04:05:45.509Z,72.11
2017-04-29T04:06:26.118Z,72.3
2017-04-29T04:07:06.728Z,72.2
2017-04-29T04:07:47.331Z,72.3
2017-04-29T04:08:27.940Z,72.3
2017-04-29T04:09:08.539Z,72.11
2017-04-29T04:09:49.142Z,72.39
2017-04-29T04:10:29.734Z,72.3
2017-04-29T04:11:10.352Z,72.39
2017-04-29T04:11:50.986Z,72.58
2017-04-29T04:12:31.569Z,72.2
2017-04-29T04:13:12.215Z,72.01
2017-04-29T04:13:52.862Z,72.3
2017-04-29T04:14:33.518Z,72.2
2017-04-29T04:15:14.110Z,72.11
2017-04-29T04:15:54.728Z,72.3
2017-04-29T04:16:35.346Z,72.58
2017-04-29T04:17:15.953Z,72.58
2017-04-29T04:17:56.540Z,71.91
2017-04-29T04:18:37.127Z,71.91
2017-04-29T04:19:17.732Z,72.39
2017-04-29T04:19:58.367Z,72.24
2017-04-29T04:20:38.973Z,72.58
2017-04-29T04:21:19.609Z,72.2
2017-04-29T04:22:00.216Z,72.3
2017-04-29T04:22:40.813Z,72.67
2017-04-29T04:23:21.457Z,72.52
2017-04-29T04:24:02.056Z,72.3
2017-04-29T04:24:42.671Z,72.58
2017-04-29T04:25:23.290Z,72.58
2017-04-29T04:26:03.933Z,72.67
2017-04-29T04:26:44.545Z,72.58
2017-04-29T04:27:25.146Z,72.39
2017-04-29T04:28:05.805Z,72.62
2017-04-29T04:28:46.420Z,72.49
2017-04-29T04:29:27.036Z,72.42
2017-04-29T04:30:07.695Z,72.39
2017-04-29T04:30:48.348Z,72.2
2017-04-29T04:31:28.960Z,72.67
2017-04-29T04:32:09.572Z,72.58
2017-04-29T04:32:50.217Z,72.3
2017-04-29T04:33:30.834Z,72.3
2017-04-29T04:34:11.475Z,72.33
2017-04-29T04:34:52.080Z,72.52
2017-04-29T04:35:32.745Z,72.49
2017-04-29T04:36:13.337Z,72.52
2017-04-29T04:36:53.962Z,72.33
2017-04-29T04:37:34.544Z,72.9
2017-04-29T04:38:15.142Z,72.71
2017-04-29T04:38:55.760Z,72.3
2017-04-29T04:39:36.370Z,72.42
2017-04-29T04:40:16.999Z,72.33
2017-04-29T04:40:57.653Z,72.3
2017-04-29T04:41:38.268Z,72.58
2017-04-29T04:42:18.917Z,72.71
2017-04-29T04:42:59.547Z,72.42
2017-04-29T04:43:40.153Z,72.62
2017-04-29T04:44:20.762Z,72.58
2017-04-29T04:45:01.422Z,72.52
2017-04-29T04:45:42.200Z,72.49
2017-04-29T04:46:22.854Z,72.42
2017-04-29T04:47:03.493Z,72.42
2017-04-29T04:47:44.222Z,72.52
2017-04-29T04:48:24.977Z,72.52
2017-04-29T04:49:05.632Z,72.81
2017-04-29T04:49:46.250Z,72.33
2017-04-29T04:50:26.910Z,72.52
2017-04-29T04:51:07.521Z,72.52
2017-04-29T04:51:48.317Z,72.33
2017-04-29T04:52:29.034Z,72.14
2017-04-29T04:53:09.797Z,72.14
2017-04-29T04:53:50.745Z,72.42
2017-04-29T04:54:31.358Z,72.62
2017-04-29T04:55:11.965Z,72.71
2017-04-29T04:55:52.752Z,72.14
2017-04-29T04:56:33.252Z,72.33
2017-04-29T04:57:13.863Z,72.62
2017-04-29T04:57:54.472Z,72.52
2017-04-29T04:58:35.053Z,72.52
2017-04-29T04:59:15.637Z,72.24
2017-04-29T04:59:56.210Z,71.95
2017-04-29T05:00:36.782Z,72.14
2017-04-29T05:01:17.356Z,72.33
2017-04-29T05:01:57.968Z,72.33
2017-04-29T05:02:38.553Z,72.52
2017-04-29T05:03:19.137Z,72.52
2017-04-29T05:03:59.727Z,72.33
2017-04-29T05:04:40.317Z,72.05
2017-04-29T05:05:20.943Z,72.33
2017-04-29T05:06:01.523Z,72.33
2017-04-29T05:06:42.209Z,72.24
2017-04-29T05:07:22.796Z,72.42
2017-04-29T05:08:03.447Z,71.95
2017-04-29T05:08:44.079Z,72.14
2017-04-29T05:09:24.727Z,72.05
2017-04-29T05:10:05.361Z,72.05
2017-04-29T05:10:45.962Z,71.76
2017-04-29T05:11:26.617Z,71.76
2017-04-29T05:12:07.245Z,72.05
2017-04-29T05:12:47.871Z,72.05
2017-04-29T05:13:28.479Z,72.14
2017-04-29T05:14:09.062Z,72.33
2017-04-29T05:14:49.670Z,72.33
2017-04-29T05:15:30.284Z,72.33
2017-04-29T05:16:10.906Z,72.62
2017-04-29T05:16:51.483Z,72.24
2017-04-29T05:17:32.102Z,72.52
2017-04-29T05:18:12.732Z,72.52
2017-04-29T05:18:53.284Z,71.86
2017-04-29T05:19:33.935Z,72.62
2017-04-29T05:20:14.514Z,71.86
2017-04-29T05:20:55.121Z,71.86
2017-04-29T05:21:35.706Z,72.14
2017-04-29T05:22:16.286Z,72.14
2017-04-29T05:22:56.922Z,72.05
2017-04-29T05:23:37.504Z,72.33
2017-04-29T05:24:18.083Z,72.42
2017-04-29T05:24:58.665Z,72.14
2017-04-29T05:25:39.286Z,72.14
2017-04-29T05:26:19.951Z,71.86
2017-04-29T05:27:00.575Z,72.05
2017-04-29T05:27:41.143Z,71.76
2017-04-29T05:28:21.725Z,71.95
2017-04-29T05:29:02.291Z,72.05
2017-04-29T05:29:42.902Z,72.14
2017-04-29T05:30:23.490Z,72.05
2017-04-29T05:31:04.067Z,72.14
2017-04-29T05:31:44.660Z,71.86
2017-04-29T05:32:25.422Z,71.67
2017-04-29T05:33:06.028Z,71.57
2017-04-29T05:33:46.641Z,70.9
2017-04-29T05:34:27.296Z,71
2017-04-29T05:35:07.967Z,71
2017-04-29T05:35:48.669Z,71.09
2017-04-29T05:36:29.438Z,71.28
2017-04-29T05:37:10.064Z,71.19
2017-04-29T05:37:50.669Z,70.84
2017-04-29T05:38:31.307Z,70.84
2017-04-29T05:39:11.880Z,70.94
2017-04-29T05:39:53.211Z,71.03
2017-04-29T05:40:33.988Z,70.65
2017-04-29T05:41:14.768Z,69.99
2017-04-29T05:41:56.167Z,69.89
2017-04-29T05:42:36.757Z,70.18
2017-04-29T05:43:17.416Z,69.42
2017-04-29T05:43:58.015Z,69.6
2017-04-29T05:44:38.641Z,69.23
2017-04-29T05:45:19.245Z,69.23
2017-04-29T05:45:59.834Z,69.13
2017-04-29T05:46:40.407Z,69.23
2017-04-29T05:47:20.992Z,69.04
2017-04-29T05:48:01.568Z,69.32
2017-04-29T05:48:42.150Z,69.04
2017-04-29T05:49:22.733Z,69.42
2017-04-29T05:50:03.365Z,68.94
2017-04-29T05:50:44.508Z,68.94
2017-04-29T05:51:25.130Z,68.94
2017-04-29T05:52:05.727Z,68.84
2017-04-29T05:52:46.312Z,68.65
2017-04-29T05:53:26.877Z,68.27
2017-04-29T05:54:07.543Z,68.65
2017-04-29T05:54:48.138Z,68.18
2017-04-29T05:55:28.723Z,68.37
2017-04-29T05:56:09.297Z,68.18
2017-04-29T05:56:49.902Z,68.15
2017-04-29T05:57:30.504Z,68.62
2017-04-29T05:58:11.090Z,68.71
2017-04-29T05:58:51.673Z,69.19
2017-04-29T05:59:32.249Z,69.19
2017-04-29T06:00:12.831Z,68.81
2017-04-29T06:00:53.399Z,68.71
2017-04-29T06:01:33.965Z,68.9
2017-04-29T06:02:14.550Z,68.62
2017-04-29T06:02:55.133Z,68.62
2017-04-29T06:03:35.754Z,69.38
2017-04-29T06:04:16.360Z,69.38
2017-04-29T06:04:56.950Z,69.38
2017-04-29T06:05:37.566Z,69.67
2017-04-29T06:06:18.160Z,69.57
2017-04-29T06:06:58.740Z,70.33
2017-04-29T06:07:39.329Z,69.76
2017-04-29T06:08:19.921Z,70.05
2017-04-29T06:09:00.485Z,70.14
2017-04-29T06:09:41.061Z,70.14
2017-04-29T06:10:21.632Z,70.24
2017-04-29T06:11:02.201Z,70.81
2017-04-29T06:11:42.787Z,70.9
2017-04-29T06:12:23.368Z,70.62
2017-04-29T06:13:03.952Z,70.9
2017-04-29T06:13:44.542Z,70.72
2017-04-29T06:14:25.120Z,70.62
2017-04-29T06:15:05.706Z,70.72
2017-04-29T06:15:46.274Z,70.52
2017-04-29T06:16:26.851Z,70.43
2017-04-29T06:17:07.432Z,70.33
2017-04-29T06:17:48.873Z,69.95
2017-04-29T06:18:29.454Z,70.05
2017-04-29T06:19:10.032Z,70.24
2017-04-29T06:19:50.625Z,69.95
2017-04-29T06:20:31.243Z,69.95
2017-04-29T06:21:11.830Z,70.14
2017-04-29T06:21:52.447Z,70.05
2017-04-29T06:22:33.026Z,70.05
2017-04-29T06:23:13.606Z,70.24
2017-04-29T06:23:54.190Z,69.85
2017-04-29T06:24:34.792Z,70.62
2017-04-29T06:25:15.366Z,70.33
2017-04-29T06:25:55.964Z,69.76
2017-04-29T06:26:36.579Z,69.85
2017-04-29T06:27:17.158Z,70.05
2017-04-29T06:27:57.991Z,69.48
2017-04-29T06:28:38.478Z,68.81
2017-04-29T06:29:19.030Z,68.81
2017-04-29T06:29:59.614Z,68.62
2017-04-29T06:30:40.296Z,68.52
2017-04-29T06:31:21.273Z,68.05
2017-04-29T06:32:01.865Z,68.33
2017-04-29T06:32:42.570Z,67.86
2017-04-29T06:33:23.430Z,67.57
2017-04-29T06:34:04.158Z,67.67
2017-04-29T06:34:44.898Z,67.29
2017-04-29T06:35:25.475Z,67.57
2017-04-29T06:36:06.070Z,67.29
2017-04-29T06:36:47.783Z,67.1
2017-04-29T06:37:28.399Z,65.67
2017-04-29T06:38:08.995Z,65.86
2017-04-29T06:38:49.605Z,65.77
2017-04-29T06:39:30.184Z,66.14
2017-04-29T06:40:10.814Z,65.61
2017-04-29T06:40:51.461Z,64.81
2017-04-29T06:41:32.054Z,64.84
2017-04-29T06:42:12.717Z,64.65
2017-04-29T06:42:53.314Z,64.65
2017-04-29T06:43:33.913Z,64.65
2017-04-29T06:44:14.524Z,64.28
2017-04-29T06:44:55.093Z,62.75
2017-04-29T06:45:35.690Z,60.94
2017-04-29T06:46:16.278Z,60.66
2017-04-29T06:46:56.856Z,60.18
2017-04-29T06:47:37.465Z,59.23
2017-04-29T06:48:18.036Z,59.42
2017-04-29T06:48:58.616Z,60.37
2017-04-29T06:49:39.214Z,60.46
2017-04-29T06:50:19.805Z,60.59
2017-04-29T06:51:00.430Z,60.49
2017-04-29T06:51:41.026Z,59.16
2017-04-29T06:52:21.610Z,58.02
2017-04-29T06:53:02.201Z,58.21
2017-04-29T06:53:42.770Z,58.78
2017-04-29T06:54:23.449Z,59.06
2017-04-29T06:55:03.969Z,58.02
2017-04-29T06:55:44.557Z,57.82
2017-04-29T06:56:25.142Z,58.02
2017-04-29T06:57:05.723Z,58.02
2017-04-29T06:57:46.293Z,57.82
2017-04-29T06:58:26.933Z,57.92
2017-04-29T06:59:07.519Z,57.82
2017-04-29T06:59:48.093Z,57.07
2017-04-29T07:00:28.790Z,56.87
2017-04-29T07:01:09.350Z,56.59
2017-04-29T07:01:49.980Z,56.71
2017-04-29T07:02:30.608Z,56.14
2017-04-29T07:03:11.234Z,55.85
2017-04-29T07:03:51.810Z,56.24
2017-04-29T07:04:32.389Z,56.26
2017-04-29T07:05:12.979Z,54.93
2017-04-29T07:05:53.606Z,53.41
2017-04-29T07:06:34.191Z,52.73
2017-04-29T07:07:14.769Z,52.55
2017-04-29T07:07:55.360Z,52.64
2017-04-29T07:08:35.941Z,52.73
2017-04-29T07:09:16.559Z,53.12
2017-04-29T07:09:57.156Z,53.78
2017-04-29T07:10:37.741Z,54.36
2017-04-29T07:11:18.320Z,53.81
2017-04-29T07:11:58.932Z,54.38
2017-04-29T07:12:39.533Z,55.53
2017-04-29T07:13:20.110Z,58.11
2017-04-29T07:14:00.740Z,57.43
2017-04-29T07:14:41.317Z,57.09
2017-04-29T07:15:21.935Z,57.09
2017-04-29T07:16:02.634Z,54.22
2017-04-29T07:16:43.242Z,52.91
2017-04-29T07:17:23.851Z,51.86
2017-04-29T07:18:04.423Z,51.09
2017-04-29T07:18:45.009Z,50.24
2017-04-29T07:19:25.660Z,49.47
2017-04-29T07:20:06.308Z,47.94
2017-04-29T07:20:46.953Z,47.92
2017-04-29T07:21:27.873Z,47.56
2017-04-29T07:22:08.461Z,48.02
2017-04-29T07:22:49.064Z,49.16
2017-04-29T07:23:29.664Z,48.02
2017-04-29T07:24:10.329Z,47.73
2017-04-29T07:24:50.920Z,48.08
2017-04-29T07:25:31.521Z,48.75
2017-04-29T07:26:12.122Z,49.23
2017-04-29T07:26:52.712Z,49.04
2017-04-29T07:27:33.290Z,49.9
2017-04-29T07:28:13.976Z,50.38
2017-04-29T07:28:55.271Z,50.76
2017-04-29T07:29:36.381Z,50.09
2017-04-29T07:30:17.070Z,49.07
2017-04-29T07:30:57.687Z,48.3
2017-04-29T07:31:38.342Z,48.21
2017-04-29T07:32:19.051Z,47.25
2017-04-29T07:32:59.739Z,47.27
2017-04-29T07:33:40.341Z,47.18
2017-04-29T07:34:20.954Z,46.89
2017-04-29T07:35:01.541Z,46.51
2017-04-29T07:35:42.170Z,46.15
2017-04-29T07:36:22.759Z,46.25
2017-04-29T07:37:03.372Z,46.15
2017-04-29T07:37:44.005Z,45.39
2017-04-29T07:38:24.685Z,45.01
2017-04-29T07:39:05.276Z,44.91
2017-04-29T07:39:45.984Z,42.52
2017-04-29T07:40:26.634Z,40.7
2017-04-29T07:41:07.233Z,40.88
2017-04-29T07:41:47.985Z,41.74
2017-04-29T07:42:28.579Z,42.11
2017-04-29T07:43:09.160Z,41.26
2017-04-29T07:43:49.804Z,41.93
2017-04-29T07:44:30.456Z,43.17
2017-04-29T07:45:11.046Z,43.74
2017-04-29T07:45:51.673Z,44.41
2017-04-29T07:46:32.288Z,44.98
2017-04-29T07:47:12.909Z,44.7
2017-04-29T07:47:53.573Z,44.79
2017-04-29T07:48:34.179Z,44.89
2017-04-29T07:49:14.747Z,43.84
2017-04-29T07:49:55.351Z,43.07
2017-04-29T07:50:35.931Z,42.33
2017-04-29T07:51:16.524Z,42.31
2017-04-29T07:51:57.143Z,42.11
2017-04-29T07:52:37.722Z,41.55
2017-04-29T07:53:18.312Z,42.11
2017-04-29T07:53:58.903Z,42.97
2017-04-29T07:54:39.543Z,43
2017-04-29T07:55:20.253Z,43.19
2017-04-29T07:56:00.855Z,42.43
2017-04-29T07:56:41.481Z,42.43
2017-04-29T07:57:22.094Z,41.95
2017-04-29T07:58:03.332Z,38.6
2017-04-29T07:58:43.918Z,38.51
2017-04-29T07:59:24.632Z,38.6
2017-04-29T08:00:05.251Z,38.78
2017-04-29T08:00:45.836Z,39.25
2017-04-29T08:01:26.426Z,38.49
2017-04-29T08:02:07.041Z,38.68
2017-04-29T08:02:47.653Z,38.96
2017-04-29T08:03:28.245Z,39.14
2017-04-29T08:04:08.925Z,40.09
2017-04-29T08:04:49.512Z,39.61
2017-04-29T08:05:30.107Z,39.71
2017-04-29T08:06:10.689Z,40.36
2017-04-29T08:06:51.292Z,40.64
2017-04-29T08:07:31.910Z,40.45
2017-04-29T08:08:12.531Z,41.41
2017-04-29T08:08:53.125Z,41.88
2017-04-29T08:09:33.722Z,42.36
2017-04-29T08:10:14.332Z,41.5
2017-04-29T08:10:54.948Z,41.03
2017-04-29T08:11:35.555Z,41.48
2017-04-29T08:12:16.176Z,42.24
2017-04-29T08:12:56.793Z,42.53
2017-04-29T08:13:37.397Z,43.01
2017-04-29T08:14:17.985Z,43.58
2017-04-29T08:14:58.582Z,43.68
2017-04-29T08:15:39.321Z,43.96
2017-04-29T08:16:19.899Z,43.96
2017-04-29T08:17:00.481Z,44.63
2017-04-29T08:17:41.056Z,44.25
2017-04-29T08:18:21.656Z,44.25
2017-04-29T08:19:02.262Z,43.87
2017-04-29T08:19:42.920Z,43.94
2017-04-29T08:20:23.514Z,43.75
2017-04-29T08:21:04.096Z,43.56
2017-04-29T08:21:44.675Z,43.08
2017-04-29T08:22:25.258Z,43.56
2017-04-29T08:23:06.053Z,43.37
2017-04-29T08:23:46.650Z,43.75
2017-04-29T08:24:27.328Z,44.04
2017-04-29T08:25:07.983Z,44.32
2017-04-29T08:25:48.619Z,44.32
2017-04-29T08:26:29.195Z,44.32
2017-04-29T08:27:09.941Z,44.42
2017-04-29T08:27:50.469Z,44.89
2017-04-29T08:28:31.050Z,44.7
2017-04-29T08:29:11.719Z,44.6
2017-04-29T08:29:52.308Z,45.37
2017-04-29T08:30:32.893Z,45.18
2017-04-29T08:31:13.516Z,45.28
2017-04-29T08:31:54.083Z,45.1
2017-04-29T08:32:34.686Z,45.08
2017-04-29T08:33:15.281Z,45.18
2017-04-29T08:33:55.887Z,45.56
2017-04-29T08:34:36.475Z,43.77
2017-04-29T08:35:17.236Z,43.77
2017-04-29T08:35:57.812Z,43.68
2017-04-29T08:36:38.391Z,42.89
2017-04-29T08:37:18.985Z,42.03
2017-04-29T08:37:59.585Z,42.22
2017-04-29T08:38:40.194Z,42.22
2017-04-29T08:39:20.777Z,42.13
2017-04-29T08:40:01.406Z,43.37
2017-04-29T08:40:42.145Z,43.65
2017-04-29T08:41:22.729Z,42.89
2017-04-29T08:42:03.330Z,43.08
2017-04-29T08:42:43.956Z,42.7
2017-04-29T08:43:24.544Z,42.32
2017-04-29T08:44:05.218Z,42.89
2017-04-29T08:44:45.808Z,43.27
2017-04-29T08:45:26.420Z,43.27